Flight Track Log - Related Links

Times and Time Zones

All times are in EDT time to prevent confusion due to time zone crossing. See the N8918B flight status page for this flight to view local times or setup timezone preferences in your user account.

Time Position Orientation Groundspeed Altitude Reporting Facility
EDT Latitude Longitude Course Direction KTS MPH feet Rate Location/Type
Fri 02:16:01 PM 40.6333 -73.8500 229° Southwest 165 190 1,800  Level New York TRACON
Fri 02:17:01 PM 40.6000 -73.9000 217° Southwest 238 274 3,200 2,139 Climbing New York TRACON
Fri 02:17:56 PM 40.5500 -73.9500 210° Southwest 269 310 5,900 2,765 Climbing New York TRACON
Fri 02:18:56 PM 40.4833 -74.0000 217° Southwest 275 316 8,500 2,471 Climbing New York TRACON
Fri 02:19:55 PM 40.4167 -74.0667 232° Southwest 286 329 10,800 1,350 Climbing New York TRACON
Fri 02:20:56 PM 40.3667 -74.1500 240° Southwest 334 384 11,200 1,241 Climbing New York TRACON
Fri 02:22:20 PM 40.3028 -74.2953 237° Southwest 366 421 13,800 1,903 Climbing New York Center
Fri 02:23:21 PM 40.2450 -74.4119 243° Southwest 352 405 15,800 1,934 Climbing New York Center
Fri 02:24:21 PM 40.2019 -74.5211 264° West 352 405 17,700 1,831 Climbing New York Center
Fri 02:25:19 PM 40.1919 -74.6403 263° West 333 383 19,400 1,160 Climbing New York Center
Fri 02:26:20 PM 40.1792 -74.7672 266° West 348 400 20,000 595 Climbing New York Center
Fri 02:27:20 PM 40.1725 -74.9000 264° West 356 410 20,600 694 Climbing New York Center
Fri 02:28:21 PM 40.1614 -75.0406 263° West 375 432 21,400 689 Climbing New York Center
Fri 02:29:22 PM 40.1478 -75.1836 253° West 390 449 22,000 305 Climbing New York Center
Fri 02:30:19 PM 40.1153 -75.3253 233° Southwest 403 464 22,000  Level New York Center
Fri 02:31:19 PM 40.0436 -75.4481 231° Southwest 409 471 22,000  Level New York Center
Fri 02:32:20 PM 39.9747 -75.5600 232° Southwest 426 490 22,000  Level New York Center
Fri 02:33:20 PM 39.9008 -75.6822 232° Southwest 436 502 22,000 -595 Level New York Center
Fri 02:34:21 PM 39.8269 -75.8039 231° Southwest 436 502 20,800 -1,438 Descending New York Center
Fri 02:35:21 PM 39.7506 -75.9256 232° Southwest 448 516 19,100 -1,714 Descending New York Center
Fri 02:36:20 PM 39.6833 -76.0367 231° Southwest 402 463 17,400 -1,563 Descending New York Center
Fri 02:37:20 PM 39.6269 -76.1267 233° Southwest 363 418 16,000 -1,587 Descending New York Center
Fri 02:38:21 PM 39.5614 -76.2375 235° Southwest 354 407 14,200 -1,614 Descending New York Center
Fri 02:39:45 PM 39.4833 -76.3833 218° Southwest 325 374 12,100 -910 Descending Potomac TRACON
Fri 02:40:46 PM 39.4167 -76.4500 212° Southwest 317 365 12,000 -347 Descending Potomac TRACON
Fri 02:41:46 PM 39.3333 -76.5167 218° Southwest 312 359 11,400 -992 Descending Potomac TRACON
Fri 02:42:47 PM 39.2667 -76.5833 218° Southwest 283 326 10,000 -724 Descending Potomac TRACON
Fri 02:43:42 PM 39.2167 -76.6333 210° Southwest 276 318 10,000  Level Potomac TRACON
Fri 02:44:42 PM 39.1500 -76.6833 226° Southwest 268 308 10,000  Level Potomac TRACON
Fri 02:45:43 PM 39.1000 -76.7500 226° Southwest 265 305 10,000 -694 Level Potomac TRACON
Fri 02:46:43 PM 39.0500 -76.8167 218° Southwest 262 302 8,600 -1,686 Descending Potomac TRACON
Fri 02:47:44 PM 38.9833 -76.8833 218° Southwest 262 302 6,600 -1,289 Descending Potomac TRACON
Fri 02:48:44 PM 38.9333 -76.9333 189° South 262 302 6,000 -298 Descending Potomac TRACON
Fri 02:49:45 PM 38.8500 -76.9500 180° South 291 335 6,000 -397 Level Potomac TRACON
Fri 02:50:45 PM 38.7833 -76.9500 180° South 271 312 5,200 -800 Descending Potomac TRACON

Login

Don't have an account? Register now (free) for customized features, flight alerts, and more!